Time;durP1;ratioP1;P1;durP2;ratioP2;P2;SDS_P1;SDS_P2;PMS_P1;PMS_P2;Temp;Humidity;BMP_temperature;BMP_pressure;BME280_temperature;BME280_humidity;BME280_pressure;Samples;Min_cycle;Max_cycle;Signal;HPM_P1;HPM_P2
2023/05/10 00:03:06;;;;;;;1.83;0.40;;;;;;;15.95;96.69;99362.69;10170420;28;20063;-73
2023/05/10 00:08:07;;;;;;;0.85;0.30;;;;;;;16.00;95.06;99365.69;10182252;28;20749;-72
2023/05/10 00:13:09;;;;;;;1.17;0.35;;;;;;;16.03;96.54;99359.97;10171103;28;20048;-70
2023/05/10 00:18:10;;;;;;;0.75;0.60;;;;;;;16.10;95.75;99376.16;10169050;28;20054;-71
2023/05/10 00:23:12;;;;;;;7.20;1.60;;;;;;;15.96;96.86;99374.25;10168929;28;20158;-72
2023/05/10 00:28:13;;;;;;;1.17;0.70;;;;;;;15.90;96.33;99375.84;10172702;28;20048;-71
2023/05/10 00:33:15;;;;;;;0.70;0.60;;;;;;;15.86;96.16;99378.03;10182487;28;20047;-68
2023/05/10 00:38:16;;;;;;;1.05;0.60;;;;;;;15.87;96.12;99386.94;10166486;28;20180;-73
2023/05/10 00:43:17;;;;;;;2.08;0.50;;;;;;;15.78;96.02;99385.28;10162313;28;20052;-71
2023/05/10 00:48:19;;;;;;;0.60;0.50;;;;;;;15.72;94.07;99386.84;10173086;28;20057;-68
2023/05/10 00:53:21;;;;;;;1.75;0.35;;;;;;;15.65;94.39;99391.22;10166557;28;20051;-73
2023/05/10 00:58:23;;;;;;;1.33;0.30;;;;;;;15.65;93.58;99393.91;10169395;28;20653;-71
2023/05/10 01:03:25;;;;;;;0.40;0.25;;;;;;;15.48;93.15;99387.81;10173120;28;20562;-73
2023/05/10 01:08:27;;;;;;;0.85;0.20;;;;;;;15.40;95.29;99396.72;10160546;28;20095;-74
2023/05/10 01:13:37;;;;;;;0.80;0.40;;;;;;;15.43;94.08;99399.06;10155217;28;20655;-72
2023/05/10 01:18:40;;;;;;;0.52;0.40;;;;;;;15.35;95.01;99399.94;10162610;28;20721;-71
2023/05/10 01:24:00;;;;;;;0.98;0.45;;;;;;;15.36;93.69;99398.09;10164558;28;20049;-74
2023/05/10 01:29:44;;;;;;;1.30;0.40;;;;;;;15.19;95.57;99402.69;10164526;29;20079;-70
2023/05/10 01:35:26;;;;;;;1.38;0.10;;;;;;;15.20;97.18;99405.19;10165078;29;20170;-72
2023/05/10 01:40:50;;;;;;;0.52;0.20;;;;;;;15.24;94.11;99415.56;10154311;29;20730;-74
2023/05/10 01:46:04;;;;;;;0.55;0.32;;;;;;;15.26;93.86;99426.97;10163563;28;20405;-75
2023/05/10 01:51:07;;;;;;;0.95;0.20;;;;;;;15.15;92.93;99426.34;10185575;29;20054;-71
2023/05/10 01:56:10;;;;;;;0.28;0.25;;;;;;;15.13;93.86;99433.72;10165219;28;20710;-72
2023/05/10 02:01:13;;;;;;;0.97;0.20;;;;;;;15.11;94.15;99427.69;10169959;28;20138;-74
2023/05/10 02:06:18;;;;;;;1.75;0.30;;;;;;;15.10;93.59;99438.59;10180067;28;20166;-74
2023/05/10 02:11:20;;;;;;;1.00;0.32;;;;;;;15.11;96.17;99440.25;10184407;28;20056;-74
2023/05/10 02:16:26;;;;;;;0.40;0.17;;;;;;;15.25;93.18;99441.38;10165468;28;20414;-73
2023/05/10 02:21:28;;;;;;;0.40;0.20;;;;;;;15.17;94.37;99439.56;10161454;28;20131;-76
2023/05/10 02:26:33;;;;;;;0.63;0.20;;;;;;;15.14;93.00;99440.75;10183927;28;20059;-75
2023/05/10 02:31:35;;;;;;;0.50;0.22;;;;;;;15.10;94.00;99458.19;10163521;29;20055;-72
2023/05/10 02:36:38;;;;;;;0.35;0.20;;;;;;;14.98;93.43;99459.53;10163151;28;20047;-72
2023/05/10 02:41:41;;;;;;;0.93;0.30;;;;;;;15.04;93.46;99464.22;10169049;28;20048;-73
2023/05/10 02:46:43;;;;;;;0.38;0.28;;;;;;;15.06;94.32;99462.22;10161105;28;20052;-71
2023/05/10 02:52:00;;;;;;;1.77;0.30;;;;;;;15.09;95.45;99455.69;10162728;28;20062;-73
2023/05/10 02:57:04;;;;;;;0.40;0.20;;;;;;;15.10;95.10;99465.38;10162256;28;20055;-74
2023/05/10 03:02:06;;;;;;;0.30;0.20;;;;;;;15.02;93.97;99458.22;10164447;28;20061;-72
2023/05/10 03:07:08;;;;;;;2.47;0.40;;;;;;;14.98;94.09;99468.44;10162900;28;20131;-73
2023/05/10 03:12:15;;;;;;;0.30;0.15;;;;;;;14.98;93.63;99473.81;10161634;28;20054;-75
2023/05/10 03:17:40;;;;;;;0.82;0.30;;;;;;;15.01;95.17;99472.59;10170944;28;20050;-70
2023/05/10 03:22:49;;;;;;;1.45;0.30;;;;;;;14.99;92.83;99467.41;10173157;28;20051;-74
2023/05/10 03:27:51;;;;;;;1.15;0.22;;;;;;;15.03;92.23;99478.66;10168660;28;20075;-75
2023/05/10 03:32:54;;;;;;;0.55;0.22;;;;;;;14.99;91.97;99480.81;10181823;28;20052;-72
2023/05/10 03:37:55;;;;;;;1.10;0.28;;;;;;;15.06;94.33;99480.13;10187532;28;20475;-71
2023/05/10 03:42:56;;;;;;;0.80;0.40;;;;;;;15.01;93.43;99486.00;10175712;28;20142;-71
2023/05/10 03:47:58;;;;;;;0.77;0.40;;;;;;;15.06;92.78;99496.22;10170244;28;20055;-73
2023/05/10 03:52:59;;;;;;;2.58;0.57;;;;;;;15.02;91.55;99506.44;10169561;29;20050;-75
2023/05/10 03:58:01;;;;;;;1.25;0.40;;;;;;;14.96;91.23;99501.78;10170353;28;20050;-71
2023/05/10 04:03:03;;;;;;;1.45;0.40;;;;;;;14.87;91.46;99498.25;10170806;28;20170;-73
2023/05/10 04:08:05;;;;;;;1.77;0.40;;;;;;;14.95;92.99;99505.44;10165236;28;20067;-72
2023/05/10 04:13:06;;;;;;;0.88;0.25;;;;;;;14.99;91.83;99496.91;10179492;28;20553;-73
2023/05/10 04:18:07;;;;;;;0.70;0.40;;;;;;;14.98;93.02;99497.06;10183743;28;20078;-77
2023/05/10 04:23:09;;;;;;;1.38;0.40;;;;;;;14.93;92.65;99494.91;10167983;28;20461;-74
2023/05/10 04:28:10;;;;;;;3.20;0.60;;;;;;;14.93;94.19;99496.75;10182453;28;20054;-72
2023/05/10 04:33:11;;;;;;;1.67;0.40;;;;;;;15.00;93.04;99508.47;10166024;28;20527;-74
2023/05/10 04:38:13;;;;;;;1.30;0.40;;;;;;;14.96;92.83;99493.72;10167561;28;20063;-71
2023/05/10 04:43:14;;;;;;;1.33;0.47;;;;;;;14.95;92.11;99511.66;10164667;28;20070;-74
2023/05/10 04:48:15;;;;;;;1.27;0.60;;;;;;;14.92;92.20;99511.16;10166666;28;20047;-75
2023/05/10 04:53:17;;;;;;;2.65;0.80;;;;;;;14.70;92.67;99510.84;10166352;28;20056;-72
2023/05/10 04:58:19;;;;;;;1.27;0.70;;;;;;;14.84;92.97;99520.03;10149664;29;20067;-71
2023/05/10 05:03:20;;;;;;;2.10;0.80;;;;;;;14.88;92.57;99518.69;10165874;29;20103;-75
2023/05/10 05:08:22;;;;;;;0.77;0.50;;;;;;;14.81;93.11;99523.06;10140415;28;20056;-72
2023/05/10 05:13:24;;;;;;;1.15;0.85;;;;;;;14.84;93.13;99526.22;10133079;28;20580;-73
2023/05/10 05:18:25;;;;;;;2.58;0.90;;;;;;;14.90;93.53;99524.72;10142648;28;20055;-73
2023/05/10 05:23:27;;;;;;;3.28;0.98;;;;;;;14.92;93.67;99537.94;10142715;28;20122;-72
2023/05/10 05:28:32;;;;;;;1.70;0.93;;;;;;;14.87;93.85;99529.59;10149784;28;20612;-72
2023/05/10 05:33:34;;;;;;;1.50;1.00;;;;;;;14.89;93.62;99541.78;10140517;28;20064;-72
2023/05/10 05:38:35;;;;;;;2.20;1.35;;;;;;;14.95;92.84;99548.31;10141148;28;20652;-71
2023/05/10 05:43:37;;;;;;;2.08;1.27;;;;;;;14.94;92.77;99546.66;10143149;28;20604;-74
2023/05/10 05:48:38;;;;;;;2.90;2.00;;;;;;;14.91;91.36;99557.72;10137814;28;20056;-72
2023/05/10 05:53:40;;;;;;;1.98;1.42;;;;;;;14.94;93.94;99557.38;10145493;28;20051;-72
2023/05/10 05:58:41;;;;;;;3.03;1.42;;;;;;;15.02;93.10;99565.41;10141127;28;20061;-72
2023/05/10 06:03:43;;;;;;;3.85;1.80;;;;;;;14.97;92.21;99567.78;10149396;28;20447;-73
2023/05/10 06:08:45;;;;;;;3.28;2.05;;;;;;;14.98;92.58;99580.13;10130370;28;20044;-70
2023/05/10 06:13:47;;;;;;;3.03;1.70;;;;;;;15.11;94.04;99579.63;10137144;28;20054;-76
2023/05/10 06:18:48;;;;;;;2.28;1.80;;;;;;;15.11;92.36;99580.47;10132280;28;20062;-73
2023/05/10 06:23:49;;;;;;;3.22;2.30;;;;;;;15.16;91.46;99578.13;10134517;28;20052;-72
2023/05/10 06:28:51;;;;;;;4.47;2.58;;;;;;;15.15;89.88;99592.53;10138999;28;21282;-75
2023/05/10 06:33:52;;;;;;;4.03;1.92;;;;;;;15.15;91.37;99599.75;10161392;29;20131;-73
2023/05/10 06:38:57;;;;;;;3.70;2.30;;;;;;;15.19;90.17;99599.25;10141353;28;20324;-71
2023/05/10 06:43:58;;;;;;;1.80;1.70;;;;;;;15.17;90.59;99611.94;10141420;28;20597;-73
2023/05/10 06:48:59;;;;;;;5.50;1.55;;;;;;;15.30;91.92;99606.09;10142204;28;20142;-70
2023/05/10 06:54:01;;;;;;;2.50;1.92;;;;;;;15.31;89.77;99604.22;10161987;28;20074;-72
2023/05/10 06:59:03;;;;;;;2.58;2.10;;;;;;;15.44;89.35;99609.09;10147539;29;20056;-75
2023/05/10 07:04:04;;;;;;;4.05;2.00;;;;;;;15.37;87.98;99611.59;10149258;28;20166;-70
2023/05/10 07:09:07;;;;;;;4.72;2.25;;;;;;;15.23;87.96;99604.25;10139503;28;20067;-72
2023/05/10 07:14:08;;;;;;;3.40;2.38;;;;;;;15.28;84.93;99617.97;10146166;28;20423;-71
2023/05/10 07:19:10;;;;;;;4.18;2.08;;;;;;;15.24;86.15;99627.34;10145272;28;20584;-71
2023/05/10 07:24:11;;;;;;;3.17;1.42;;;;;;;15.30;86.95;99629.38;10146476;28;20147;-72
2023/05/10 07:29:12;;;;;;;6.25;2.60;;;;;;;15.35;86.13;99629.72;10145208;28;20058;-74
2023/05/10 07:34:14;;;;;;;2.88;1.92;;;;;;;15.39;85.73;99631.06;10146437;28;20059;-73
2023/05/10 07:39:16;;;;;;;5.32;2.25;;;;;;;15.40;85.70;99616.63;10142224;28;20545;-73
2023/05/10 07:44:28;;;;;;;3.78;1.83;;;;;;;15.49;84.33;99637.06;10141199;28;21333;-71
2023/05/10 07:49:29;;;;;;;2.20;2.00;;;;;;;15.47;84.71;99641.75;10142758;28;20142;-70
2023/05/10 07:54:31;;;;;;;5.75;2.00;;;;;;;15.38;85.48;99637.41;10146354;28;20107;-73
2023/05/10 07:59:33;;;;;;;5.68;2.10;;;;;;;15.52;85.46;99649.28;10143956;28;20727;-72
2023/05/10 08:04:34;;;;;;;4.63;2.10;;;;;;;15.69;85.53;99652.78;10140320;28;20052;-71
2023/05/10 08:09:35;;;;;;;8.57;2.78;;;;;;;15.86;84.69;99646.38;10140676;28;20100;-72
2023/05/10 08:14:37;;;;;;;4.32;2.03;;;;;;;15.91;82.47;99651.22;10151056;28;20503;-75
2023/05/10 08:19:38;;;;;;;6.80;2.03;;;;;;;15.88;82.67;99656.94;10144923;28;20044;-73
2023/05/10 08:24:41;;;;;;;3.58;1.85;;;;;;;15.99;82.32;99661.09;10148373;28;20048;-74
2023/05/10 08:29:43;;;;;;;2.63;1.80;;;;;;;16.10;81.94;99660.72;10142183;28;20062;-73
2023/05/10 08:34:50;;;;;;;4.68;1.83;;;;;;;16.26;82.33;99659.84;10146853;28;20059;-70
2023/05/10 08:39:52;;;;;;;3.80;1.73;;;;;;;16.37;81.77;99662.13;10146245;28;20494;-72
2023/05/10 08:44:54;;;;;;;2.85;1.80;;;;;;;16.37;80.55;99669.34;10162690;28;20055;-70
2023/05/10 08:49:57;;;;;;;6.28;2.25;;;;;;;16.33;79.94;99668.00;10143587;28;20131;-71
2023/05/10 08:54:59;;;;;;;2.67;1.52;;;;;;;16.42;79.55;99665.13;10138245;28;20056;-72
2023/05/10 09:00:01;;;;;;;5.70;1.48;;;;;;;16.59;77.96;99675.78;10140104;28;20328;-73
2023/05/10 09:05:04;;;;;;;3.67;1.42;;;;;;;16.64;76.57;99670.69;10142853;28;20059;-72
2023/05/10 09:10:06;;;;;;;2.93;1.30;;;;;;;16.63;75.83;99685.13;10132112;28;20449;-71
2023/05/10 09:15:09;;;;;;;2.17;1.30;;;;;;;16.68;76.39;99684.59;10139790;28;20047;-70
2023/05/10 09:20:11;;;;;;;3.08;1.50;;;;;;;16.57;75.17;99696.59;10146304;28;20563;-73
2023/05/10 09:25:16;;;;;;;3.65;1.38;;;;;;;16.58;77.28;99696.41;10136972;28;20534;-70
2023/05/10 09:30:29;;;;;;;3.00;1.67;;;;;;;16.53;76.02;99700.63;10134057;28;20055;-73
2023/05/10 09:35:32;;;;;;;5.60;1.40;;;;;;;16.64;76.27;99694.06;10156272;28;20141;-71
2023/05/10 09:40:33;;;;;;;5.20;1.40;;;;;;;16.67;75.49;99707.13;10154068;28;20063;-73
2023/05/10 09:45:35;;;;;;;2.15;1.23;;;;;;;16.58;75.38;99696.41;10132152;28;20439;-71
2023/05/10 09:50:40;;;;;;;3.88;1.20;;;;;;;16.62;76.31;99710.34;10135444;28;20078;-71
2023/05/10 09:55:46;;;;;;;1.58;1.17;;;;;;;16.74;76.40;99705.44;10138201;28;20417;-75
2023/05/10 10:00:51;;;;;;;2.55;0.70;;;;;;;17.02;74.15;99713.00;10145022;28;20047;-74
2023/05/10 10:05:53;;;;;;;3.70;1.05;;;;;;;17.46;74.24;99712.34;10148616;28;20060;-75
2023/05/10 10:10:54;;;;;;;1.42;0.80;;;;;;;17.60;71.53;99710.69;10146877;28;20058;-71
2023/05/10 10:15:56;;;;;;;5.38;0.80;;;;;;;17.36;70.82;99725.19;10138368;28;20238;-72
2023/05/10 10:20:58;;;;;;;1.65;1.10;;;;;;;17.19;74.32;99719.94;10132278;28;20577;-71
2023/05/10 10:26:00;;;;;;;3.03;1.70;;;;;;;16.91;80.07;99723.13;10127425;28;20142;-73
2023/05/10 10:31:17;;;;;;;3.20;1.25;;;;;;;16.94;80.94;99725.47;10135400;28;20071;-73
2023/05/10 10:36:18;;;;;;;3.55;1.50;;;;;;;16.86;81.37;99725.50;10138074;28;20084;-74
2023/05/10 10:41:37;;;;;;;3.15;1.52;;;;;;;16.81;80.26;99722.50;10134698;28;20048;-74
2023/05/10 10:47:32;;;;;;;2.35;1.20;;;;;;;16.86;80.48;99735.41;10133387;29;20044;-73
2023/05/10 10:52:38;;;;;;;1.75;1.13;;;;;;;16.81;81.22;99727.88;10108454;28;20076;-73
2023/05/10 10:57:40;;;;;;;2.25;1.00;;;;;;;16.59;79.75;99734.88;10133052;28;20054;-71
2023/05/10 11:02:41;;;;;;;1.02;0.55;;;;;;;16.57;76.63;99742.28;10145731;28;20289;-73
2023/05/10 11:07:57;;;;;;;2.00;0.88;;;;;;;16.50;78.36;99736.78;10134796;28;20056;-71
2023/05/10 11:13:04;;;;;;;3.63;2.33;;;;;;;16.60;77.24;99720.41;10134754;28;20063;-73
2023/05/10 11:18:19;;;;;;;1.80;0.50;;;;;;;16.86;77.99;99730.88;10131247;28;20067;-72
2023/05/10 11:23:21;;;;;;;0.70;0.50;;;;;;;17.09;76.18;99732.78;10134913;28;20475;-71
2023/05/10 11:28:22;;;;;;;0.65;0.40;;;;;;;17.20;74.80;99732.34;10132365;28;20063;-72
2023/05/10 11:33:24;;;;;;;1.58;0.40;;;;;;;17.23;75.47;99733.84;10139236;28;20570;-73
2023/05/10 11:38:25;;;;;;;1.00;0.40;;;;;;;17.34;74.87;99722.69;10133787;28;21151;-76
2023/05/10 11:43:30;;;;;;;1.45;0.50;;;;;;;17.45;75.29;99735.69;10146706;28;20767;-74
2023/05/10 11:48:31;;;;;;;2.25;0.50;;;;;;;17.57;74.68;99737.97;10136506;28;20407;-73
2023/05/10 11:53:33;;;;;;;2.63;0.52;;;;;;;17.39;74.30;99747.19;10136524;28;20058;-74
2023/05/10 11:58:36;;;;;;;2.67;0.40;;;;;;;17.10;74.45;99737.97;10131729;28;20484;-72
2023/05/10 12:03:38;;;;;;;1.07;0.63;;;;;;;16.92;75.21;99753.56;10128830;28;20155;-72
2023/05/10 12:08:46;;;;;;;1.95;1.10;;;;;;;16.79;77.11;99751.41;10127711;28;20075;-73
2023/05/10 12:13:47;;;;;;;2.83;0.98;;;;;;;16.89;79.61;99760.13;10133071;28;20423;-74
2023/05/10 12:18:53;;;;;;;2.42;1.40;;;;;;;16.97;77.64;99759.22;10129053;28;20188;-72
2023/05/10 12:24:00;;;;;;;1.77;0.90;;;;;;;17.13;76.91;99755.63;10130940;28;20055;-73
2023/05/10 12:29:18;;;;;;;2.50;1.13;;;;;;;17.44;77.38;99754.69;10127180;28;20095;-72
2023/05/10 12:34:26;;;;;;;2.47;1.02;;;;;;;17.89;76.13;99763.75;10129752;28;20063;-72
2023/05/10 12:39:45;;;;;;;4.78;1.30;;;;;;;18.24;71.41;99761.38;10133182;28;20066;-72
2023/05/10 12:44:47;;;;;;;2.22;0.85;;;;;;;18.62;73.24;99753.19;10143765;28;20059;-71
2023/05/10 12:49:48;;;;;;;0.52;0.35;;;;;;;18.84;64.66;99756.78;10150077;28;20079;-70
2023/05/10 12:54:49;;;;;;;1.90;0.52;;;;;;;18.76;66.54;99761.44;10144580;28;20272;-72
2023/05/10 12:59:51;;;;;;;1.08;0.55;;;;;;;19.02;64.88;99764.47;10146122;28;20059;-71
2023/05/10 13:04:52;;;;;;;3.08;0.50;;;;;;;19.12;61.51;99757.94;10144059;28;20699;-72
2023/05/10 13:09:54;;;;;;;0.98;0.40;;;;;;;18.94;61.28;99753.78;10140950;28;20075;-70
2023/05/10 13:14:55;;;;;;;0.65;0.30;;;;;;;19.09;63.24;99756.44;10144970;28;21628;-74
2023/05/10 13:19:57;;;;;;;2.58;0.40;;;;;;;19.34;58.67;99756.91;10139917;28;20522;-71
2023/05/10 13:24:58;;;;;;;0.80;0.20;;;;;;;19.49;55.22;99759.53;10138816;28;20545;-71
2023/05/10 13:29:59;;;;;;;2.58;0.40;;;;;;;19.54;55.16;99764.34;10139535;29;20043;-72
2023/05/10 13:35:02;;;;;;;1.17;0.20;;;;;;;19.54;53.52;99753.56;10138226;28;20079;-72
2023/05/10 13:40:05;;;;;;;2.40;0.32;;;;;;;19.31;52.92;99762.69;10141526;28;20059;-73
2023/05/10 13:45:06;;;;;;;1.83;0.60;;;;;;;19.27;54.59;99761.41;10144071;28;20135;-71
2023/05/10 13:50:08;;;;;;;2.90;0.52;;;;;;;19.52;53.95;99752.94;10141569;28;20635;-73
2023/05/10 13:55:12;;;;;;;1.48;0.32;;;;;;;19.68;51.76;99743.69;10162719;28;20529;-72
2023/05/10 14:00:13;;;;;;;2.63;0.70;;;;;;;19.82;51.52;99755.50;10137075;29;20131;-71
2023/05/10 14:05:15;;;;;;;1.15;0.35;;;;;;;19.84;50.65;99753.41;10139234;28;20082;-72
2023/05/10 14:10:19;;;;;;;0.60;0.20;;;;;;;19.72;50.59;99748.50;10141001;28;20047;-72
2023/05/10 14:15:21;;;;;;;1.48;0.47;;;;;;;19.65;48.71;99744.94;10150552;28;20060;-72
2023/05/10 14:20:22;;;;;;;0.98;0.20;;;;;;;19.52;47.44;99745.66;10148481;28;20062;-72
2023/05/10 14:25:24;;;;;;;0.93;0.30;;;;;;;19.39;46.66;99743.66;10135891;28;20195;-71
2023/05/10 14:30:25;;;;;;;1.80;0.30;;;;;;;19.37;49.38;99745.72;10141216;28;20569;-72
2023/05/10 14:35:28;;;;;;;1.80;0.45;;;;;;;19.33;49.43;99741.72;10150537;28;20047;-70
2023/05/10 14:40:30;;;;;;;0.35;0.17;;;;;;;19.33;50.32;99733.63;10140726;28;20055;-73
2023/05/10 14:45:31;;;;;;;2.05;0.70;;;;;;;19.33;49.61;99732.81;10134885;28;20066;-70
2023/05/10 14:50:33;;;;;;;1.42;0.40;;;;;;;19.32;48.97;99734.69;10139219;29;20051;-71
2023/05/10 14:55:38;;;;;;;3.90;0.30;;;;;;;19.26;50.38;99732.78;10139954;28;21254;-72
2023/05/10 15:00:40;;;;;;;1.48;0.30;;;;;;;19.29;50.50;99726.97;10138594;28;20471;-71
2023/05/10 15:05:42;;;;;;;1.33;0.30;;;;;;;19.33;49.68;99732.81;10137821;28;20234;-70
2023/05/10 15:10:43;;;;;;;2.15;0.30;;;;;;;19.38;49.66;99728.50;10136637;28;20051;-72
2023/05/10 15:15:45;;;;;;;1.38;0.40;;;;;;;19.46;48.44;99726.72;10144680;28;20052;-68
2023/05/10 15:20:46;;;;;;;0.95;0.45;;;;;;;19.29;49.84;99728.81;10144665;28;20502;-74
2023/05/10 15:25:49;;;;;;;0.82;0.30;;;;;;;19.30;48.85;99728.63;10140757;28;20585;-71
2023/05/10 15:30:51;;;;;;;0.70;0.33;;;;;;;19.25;49.77;99720.28;10135596;28;20442;-75
2023/05/10 15:35:53;;;;;;;2.15;0.30;;;;;;;19.28;49.21;99736.09;10147478;28;20182;-72
2023/05/10 15:40:57;;;;;;;1.80;0.40;;;;;;;19.26;49.64;99735.47;10141592;28;20071;-72
2023/05/10 15:45:59;;;;;;;1.20;0.50;;;;;;;19.22;50.65;99748.50;10145761;28;20067;-73
2023/05/10 15:51:00;;;;;;;1.25;0.40;;;;;;;19.15;51.27;99757.53;10148555;28;20296;-75
2023/05/10 15:56:01;;;;;;;0.93;0.35;;;;;;;19.05;51.54;99758.69;10144254;28;20062;-74
2023/05/10 16:01:04;;;;;;;0.80;0.35;;;;;;;19.02;51.73;99764.47;10147448;29;20060;-72
2023/05/10 16:06:06;;;;;;;1.48;0.47;;;;;;;19.00;51.50;99760.28;10145681;28;20189;-73
2023/05/10 16:11:07;;;;;;;1.95;0.32;;;;;;;18.92;51.42;99761.25;10143638;28;20596;-71
2023/05/10 16:16:09;;;;;;;2.95;0.40;;;;;;;18.90;50.29;99774.09;10143982;28;20659;-73
2023/05/10 16:21:10;;;;;;;1.52;0.50;;;;;;;18.84;50.47;99778.34;10143339;28;20044;-71
2023/05/10 16:26:11;;;;;;;1.98;0.65;;;;;;;18.86;51.29;99780.88;10155768;28;20047;-71
2023/05/10 16:31:13;;;;;;;4.32;1.05;;;;;;;18.77;49.58;99772.03;10144846;28;20294;-76
2023/05/10 16:36:14;;;;;;;2.17;0.65;;;;;;;18.79;50.94;99779.94;10157799;28;20062;-72
2023/05/10 16:41:16;;;;;;;2.08;0.80;;;;;;;18.78;50.47;99778.25;10149374;28;20130;-75
2023/05/10 16:46:17;;;;;;;1.67;0.60;;;;;;;18.72;52.64;99780.69;10146143;28;20055;-70
2023/05/10 16:51:18;;;;;;;3.33;0.93;;;;;;;18.57;53.15;99793.34;10155496;28;20449;-75
2023/05/10 16:56:21;;;;;;;2.83;0.98;;;;;;;18.54;53.81;99788.34;10140780;28;20929;-70
2023/05/10 17:01:22;;;;;;;2.53;0.88;;;;;;;18.46;54.46;99789.25;10143397;28;20126;-73
2023/05/10 17:06:27;;;;;;;1.38;0.75;;;;;;;18.50;53.68;99792.41;10141441;28;20182;-71
2023/05/10 17:11:28;;;;;;;2.55;0.93;;;;;;;18.31;53.92;99783.84;10140569;28;20056;-71
2023/05/10 17:16:30;;;;;;;3.55;0.98;;;;;;;18.37;54.79;99791.22;10138621;28;20060;-74
2023/05/10 17:21:31;;;;;;;1.60;0.82;;;;;;;18.34;54.83;99798.81;10143697;28;20324;-71
2023/05/10 17:26:33;;;;;;;3.30;1.10;;;;;;;18.35;55.05;99800.50;10141814;28;20487;-72
2023/05/10 17:31:34;;;;;;;3.10;0.90;;;;;;;18.25;54.26;99792.69;10142857;28;20093;-78
2023/05/10 17:36:36;;;;;;;3.92;1.00;;;;;;;18.16;55.04;99802.69;10143840;29;20060;-72
2023/05/10 17:41:37;;;;;;;3.85;1.60;;;;;;;18.12;54.83;99811.31;10140862;28;20594;-73
2023/05/10 17:46:38;;;;;;;3.00;1.58;;;;;;;18.04;54.73;99809.56;10145561;28;20067;-72
2023/05/10 17:51:42;;;;;;;3.30;0.70;;;;;;;18.04;55.39;99804.16;10139520;28;20512;-72
2023/05/10 17:56:44;;;;;;;;;;;;;;;17.96;54.77;99815.84;10144712;28;20162;-73
2023/05/10 18:01:45;;;;;;;2.10;0.70;;;;;;;17.85;54.48;99805.50;10142222;28;19934;-74
2023/05/10 18:06:48;;;;;;;2.70;0.85;;;;;;;17.87;55.00;99808.03;10141436;28;20051;-73
2023/05/10 18:11:49;;;;;;;2.20;1.00;;;;;;;17.83;54.93;99821.00;10141454;28;20060;-74
2023/05/10 18:16:50;;;;;;;2.97;1.05;;;;;;;17.72;54.80;99821.44;10134385;28;20733;-74
2023/05/10 18:21:52;;;;;;;2.72;1.30;;;;;;;17.67;54.93;99820.13;10139624;28;20427;-73
2023/05/10 18:26:53;;;;;;;2.55;1.30;;;;;;;17.72;55.58;99832.19;10137886;28;20131;-71
2023/05/10 18:31:55;;;;;;;2.20;0.90;;;;;;;17.64;55.21;99825.03;10140678;28;20607;-72
2023/05/10 18:36:56;;;;;;;1.95;1.10;;;;;;;17.67;56.17;99825.50;10132564;28;20059;-73
2023/05/10 18:41:58;;;;;;;1.80;1.00;;;;;;;17.59;55.19;99830.09;10139335;28;20056;-72
2023/05/10 18:46:59;;;;;;;3.50;1.30;;;;;;;17.46;55.51;99826.16;10137605;28;20060;-73
2023/05/10 18:52:01;;;;;;;7.35;1.20;;;;;;;17.37;54.87;99829.94;10149879;28;20059;-73
2023/05/10 18:57:03;;;;;;;2.22;1.45;;;;;;;17.39;55.26;99827.88;10153718;28;20244;-75
2023/05/10 19:02:04;;;;;;;1.38;0.70;;;;;;;17.43;54.83;99831.03;10140119;28;20051;-71
2023/05/10 19:07:06;;;;;;;1.75;0.70;;;;;;;17.38;54.88;99831.56;10147139;28;21193;-74
2023/05/10 19:12:07;;;;;;;2.67;1.08;;;;;;;17.38;55.02;99833.44;10145546;28;20086;-72
2023/05/10 19:17:09;;;;;;;2.10;0.98;;;;;;;17.30;54.28;99837.03;10146829;28;20076;-74
2023/05/10 19:22:11;;;;;;;3.17;0.90;;;;;;;17.27;54.13;99846.28;10168541;28;20471;-75
2023/05/10 19:27:13;;;;;;;3.63;1.15;;;;;;;17.20;55.31;99839.91;10146249;28;20058;-74
2023/05/10 19:32:14;;;;;;;1.80;1.17;;;;;;;17.11;55.04;99841.84;10161186;28;20115;-75
2023/05/10 19:37:15;;;;;;;2.33;1.10;;;;;;;17.07;55.17;99843.19;10158439;28;20048;-74
2023/05/10 19:42:19;;;;;;;4.28;1.23;;;;;;;17.07;56.09;99861.16;10146011;28;20051;-74
2023/05/10 19:47:20;;;;;;;1.75;1.27;;;;;;;17.06;57.01;99864.88;10143102;28;20112;-73
2023/05/10 19:52:22;;;;;;;2.17;1.00;;;;;;;17.02;56.50;99864.38;10145383;28;20072;-71
2023/05/10 19:57:23;;;;;;;3.58;1.23;;;;;;;17.05;56.83;99868.59;10140760;28;20048;-75
2023/05/10 20:02:25;;;;;;;2.13;1.20;;;;;;;17.03;58.29;99882.19;10142230;28;20055;-74
2023/05/10 20:07:26;;;;;;;1.75;1.02;;;;;;;17.04;58.57;99883.03;10145446;28;20060;-78
2023/05/10 20:12:28;;;;;;;4.13;1.40;;;;;;;16.97;62.70;99882.91;10141413;28;20051;-71
2023/05/10 20:17:29;;;;;;;3.63;3.33;;;;;;;16.94;65.91;99881.38;10145427;29;20051;-73
2023/05/10 20:22:30;;;;;;;3.53;1.33;;;;;;;16.91;68.29;99875.53;10144913;28;20051;-72
2023/05/10 20:27:32;;;;;;;1.67;1.00;;;;;;;16.87;69.64;99888.47;10150239;28;20058;-73
2023/05/10 20:32:33;;;;;;;3.33;1.35;;;;;;;16.82;71.23;99896.19;10142331;28;20606;-75
2023/05/10 20:37:36;;;;;;;4.95;1.10;;;;;;;16.76;71.91;99892.34;10147671;28;20138;-72
2023/05/10 20:42:37;;;;;;;1.50;1.00;;;;;;;16.77;71.76;99891.34;10144854;28;20051;-74
2023/05/10 20:47:39;;;;;;;2.05;0.82;;;;;;;16.73;72.14;99891.84;10143210;28;20055;-74
2023/05/10 20:52:41;;;;;;;2.28;0.65;;;;;;;16.67;71.97;99887.19;10141301;28;20418;-74
2023/05/10 20:57:42;;;;;;;0.93;0.80;;;;;;;16.61;71.22;99884.16;10141838;28;20059;-70
2023/05/10 21:02:45;;;;;;;2.08;0.77;;;;;;;16.57;71.39;99888.22;10140396;28;20056;-72
2023/05/10 21:07:46;;;;;;;2.25;0.80;;;;;;;16.56;71.46;99886.53;10148511;28;20076;-73
2023/05/10 21:12:47;;;;;;;1.23;0.70;;;;;;;16.55;71.17;99887.53;10145889;28;20060;-74
2023/05/10 21:17:49;;;;;;;1.52;0.60;;;;;;;16.55;70.44;99892.91;10151843;28;20628;-73
2023/05/10 21:22:50;;;;;;;1.70;1.02;;;;;;;16.46;71.83;99890.41;10143002;28;20495;-73
2023/05/10 21:27:51;;;;;;;1.80;1.00;;;;;;;16.42;71.48;99887.22;10142465;28;20940;-73
2023/05/10 21:32:58;;;;;;;3.33;1.17;;;;;;;16.41;72.54;99893.63;10145562;28;20066;-72
2023/05/10 21:38:01;;;;;;;3.70;1.67;;;;;;;16.41;72.46;99888.25;10144438;28;20104;-71
2023/05/10 21:43:02;;;;;;;3.50;1.25;;;;;;;16.40;73.00;99887.38;10141229;28;20501;-70
2023/05/10 21:48:03;;;;;;;2.83;1.15;;;;;;;16.33;72.86;99883.69;10141117;28;20062;-70
2023/05/10 21:53:05;;;;;;;1.15;1.05;;;;;;;16.33;73.06;99874.81;10164230;28;20093;-71
2023/05/10 21:58:07;;;;;;;3.60;1.63;;;;;;;16.34;73.19;99889.94;10162324;28;20474;-69
2023/05/10 22:03:08;;;;;;;3.65;1.15;;;;;;;16.28;73.70;99885.25;10164120;28;20052;-71
2023/05/10 22:08:09;;;;;;;2.08;1.40;;;;;;;16.26;73.82;99888.91;10161203;28;20136;-70
2023/05/10 22:13:11;;;;;;;2.03;1.58;;;;;;;16.26;73.90;99883.56;10150216;28;20365;-71
2023/05/10 22:18:12;;;;;;;6.00;1.92;;;;;;;16.24;73.63;99882.03;10160878;28;20532;-72
2023/05/10 22:23:13;;;;;;;2.17;1.67;;;;;;;16.19;74.32;99890.59;10156477;28;20449;-71
2023/05/10 22:28:15;;;;;;;4.00;1.60;;;;;;;16.05;74.16;99889.44;10154507;29;20545;-73
2023/05/10 22:33:16;;;;;;;2.47;1.30;;;;;;;15.97;75.03;99892.09;10157890;28;20052;-72
2023/05/10 22:38:18;;;;;;;2.17;1.60;;;;;;;16.02;75.05;99891.63;10156856;28;20056;-71
2023/05/10 22:43:20;;;;;;;2.92;1.33;;;;;;;15.90;72.04;99894.63;10162328;28;20052;-71
2023/05/10 22:48:21;;;;;;;1.73;1.17;;;;;;;15.88;70.61;99893.13;10169264;28;20078;-76
2023/05/10 22:53:23;;;;;;;3.00;1.52;;;;;;;15.80;69.90;99893.94;10157269;29;20105;-70
2023/05/10 22:58:25;;;;;;;3.60;1.60;;;;;;;15.69;70.32;99888.91;10153111;28;20526;-73
2023/05/10 23:03:27;;;;;;;4.47;1.70;;;;;;;15.64;70.07;99891.22;10178845;28;20059;-73
2023/05/10 23:08:28;;;;;;;3.00;1.52;;;;;;;15.62;69.28;99901.28;10160396;28;20531;-74
2023/05/10 23:13:30;;;;;;;2.67;1.20;;;;;;;15.45;70.13;99898.56;10155743;28;20063;-71
2023/05/10 23:18:32;;;;;;;3.13;1.38;;;;;;;15.37;71.51;99911.94;10151558;28;20059;-68
2023/05/10 23:23:33;;;;;;;2.90;1.20;;;;;;;15.41;71.08;99912.47;10155970;28;20143;-69
2023/05/10 23:28:35;;;;;;;3.03;1.30;;;;;;;15.40;70.07;99910.78;10158677;28;20055;-69